sensor_id;sensor_type;location;lat;lon;timestamp;temperature;humidity
19258;DHT22;9763;48.780;9.212;2023-02-28T00:02:38;2.60;51.60
19258;DHT22;9763;48.780;9.212;2023-02-28T00:06:04;2.50;51.80
19258;DHT22;9763;48.780;9.212;2023-02-28T00:09:29;2.50;51.90
19258;DHT22;9763;48.780;9.212;2023-02-28T00:12:54;2.40;51.70
19258;DHT22;9763;48.780;9.212;2023-02-28T00:16:23;2.40;51.90
19258;DHT22;9763;48.780;9.212;2023-02-28T00:19:47;2.40;52.00
19258;DHT22;9763;48.780;9.212;2023-02-28T00:23:11;2.30;52.00
19258;DHT22;9763;48.780;9.212;2023-02-28T00:26:35;2.30;52.00
19258;DHT22;9763;48.780;9.212;2023-02-28T00:29:58;2.30;52.00
19258;DHT22;9763;48.780;9.212;2023-02-28T00:33:26;2.30;52.10
19258;DHT22;9763;48.780;9.212;2023-02-28T00:36:50;2.20;52.10
19258;DHT22;9763;48.780;9.212;2023-02-28T00:40:14;2.20;52.10
19258;DHT22;9763;48.780;9.212;2023-02-28T00:43:39;2.20;52.10
19258;DHT22;9763;48.780;9.212;2023-02-28T00:47:03;2.80;52.70
19258;DHT22;9763;48.780;9.212;2023-02-28T00:50:29;2.10;52.30
19258;DHT22;9763;48.780;9.212;2023-02-28T00:53:52;2.10;52.30
19258;DHT22;9763;48.780;9.212;2023-02-28T00:57:18;2.00;52.30
19258;DHT22;9763;48.780;9.212;2023-02-28T01:00:43;2.00;52.30
19258;DHT22;9763;48.780;9.212;2023-02-28T01:04:13;2.00;52.30
19258;DHT22;9763;48.780;9.212;2023-02-28T01:07:39;2.00;52.40
19258;DHT22;9763;48.780;9.212;2023-02-28T01:11:08;2.00;52.30
19258;DHT22;9763;48.780;9.212;2023-02-28T01:14:35;2.00;52.50
19258;DHT22;9763;48.780;9.212;2023-02-28T01:17:59;1.90;52.50
19258;DHT22;9763;48.780;9.212;2023-02-28T01:21:22;1.90;52.50
19258;DHT22;9763;48.780;9.212;2023-02-28T01:24:47;1.90;52.60
19258;DHT22;9763;48.780;9.212;2023-02-28T01:28:11;1.90;52.70
19258;DHT22;9763;48.780;9.212;2023-02-28T01:31:35;1.90;52.70
19258;DHT22;9763;48.780;9.212;2023-02-28T01:34:59;1.80;52.70
19258;DHT22;9763;48.780;9.212;2023-02-28T01:38:23;1.80;52.90
19258;DHT22;9763;48.780;9.212;2023-02-28T01:41:50;1.80;52.90
19258;DHT22;9763;48.780;9.212;2023-02-28T01:45:22;1.80;52.90
19258;DHT22;9763;48.780;9.212;2023-02-28T01:48:53;1.80;53.10
19258;DHT22;9763;48.780;9.212;2023-02-28T01:52:22;1.80;53.10
19258;DHT22;9763;48.780;9.212;2023-02-28T01:55:50;1.80;53.20
19258;DHT22;9763;48.780;9.212;2023-02-28T01:59:22;1.90;53.40
19258;DHT22;9763;48.780;9.212;2023-02-28T02:02:51;2.00;53.60
19258;DHT22;9763;48.780;9.212;2023-02-28T02:06:18;1.50;53.30
19258;DHT22;9763;48.780;9.212;2023-02-28T02:09:42;1.90;53.50
19258;DHT22;9763;48.780;9.212;2023-02-28T02:13:19;1.90;53.60
19258;DHT22;9763;48.780;9.212;2023-02-28T02:17:16;1.90;53.80
19258;DHT22;9763;48.780;9.212;2023-02-28T02:21:11;1.90;53.80
19258;DHT22;9763;48.780;9.212;2023-02-28T02:25:17;1.90;53.90
19258;DHT22;9763;48.780;9.212;2023-02-28T02:29:05;2.00;54.00
19258;DHT22;9763;48.780;9.212;2023-02-28T02:33:10;2.00;54.10
19258;DHT22;9763;48.780;9.212;2023-02-28T02:36:51;2.10;54.20
19258;DHT22;9763;48.780;9.212;2023-02-28T02:40:23;2.10;54.20
19258;DHT22;9763;48.780;9.212;2023-02-28T02:43:56;2.10;54.20
19258;DHT22;9763;48.780;9.212;2023-02-28T02:47:28;2.10;54.30
19258;DHT22;9763;48.780;9.212;2023-02-28T02:50:57;2.10;54.30
19258;DHT22;9763;48.780;9.212;2023-02-28T02:54:27;2.10;54.30
19258;DHT22;9763;48.780;9.212;2023-02-28T02:57:56;2.20;54.40
19258;DHT22;9763;48.780;9.212;2023-02-28T03:01:26;2.20;54.50
19258;DHT22;9763;48.780;9.212;2023-02-28T03:04:58;2.20;54.60
19258;DHT22;9763;48.780;9.212;2023-02-28T03:08:24;2.30;54.60
19258;DHT22;9763;48.780;9.212;2023-02-28T03:11:51;2.30;54.60
19258;DHT22;9763;48.780;9.212;2023-02-28T03:15:19;2.30;54.60
19258;DHT22;9763;48.780;9.212;2023-02-28T03:18:56;2.30;54.60
19258;DHT22;9763;48.780;9.212;2023-02-28T03:22:48;2.30;55.30
19258;DHT22;9763;48.780;9.212;2023-02-28T03:26:23;2.40;54.80
19258;DHT22;9763;48.780;9.212;2023-02-28T03:29:53;2.40;54.80
19258;DHT22;9763;48.780;9.212;2023-02-28T03:33:26;2.40;54.90
19258;DHT22;9763;48.780;9.212;2023-02-28T03:36:55;2.40;54.90
19258;DHT22;9763;48.780;9.212;2023-02-28T03:40:25;2.40;55.50
19258;DHT22;9763;48.780;9.212;2023-02-28T03:43:56;2.40;55.00
19258;DHT22;9763;48.780;9.212;2023-02-28T03:47:28;2.50;55.10
19258;DHT22;9763;48.780;9.212;2023-02-28T03:50:58;2.50;55.20
19258;DHT22;9763;48.780;9.212;2023-02-28T03:54:30;2.50;55.30
19258;DHT22;9763;48.780;9.212;2023-02-28T03:58:01;2.50;55.30
19258;DHT22;9763;48.780;9.212;2023-02-28T04:01:35;2.60;55.30
19258;DHT22;9763;48.780;9.212;2023-02-28T04:05:05;2.60;55.30
19258;DHT22;9763;48.780;9.212;2023-02-28T04:08:29;2.60;55.30
19258;DHT22;9763;48.780;9.212;2023-02-28T04:11:53;2.60;55.30
19258;DHT22;9763;48.780;9.212;2023-02-28T04:15:17;2.70;55.50
19258;DHT22;9763;48.780;9.212;2023-02-28T04:18:44;2.70;55.50
19258;DHT22;9763;48.780;9.212;2023-02-28T04:22:10;2.70;55.40
19258;DHT22;9763;48.780;9.212;2023-02-28T04:25:33;2.70;55.40
19258;DHT22;9763;48.780;9.212;2023-02-28T04:28:57;2.80;55.50
19258;DHT22;9763;48.780;9.212;2023-02-28T04:32:21;2.80;55.60
19258;DHT22;9763;48.780;9.212;2023-02-28T04:35:45;2.80;55.50
19258;DHT22;9763;48.780;9.212;2023-02-28T04:39:10;2.80;55.50
19258;DHT22;9763;48.780;9.212;2023-02-28T04:42:34;2.80;55.60
19258;DHT22;9763;48.780;9.212;2023-02-28T04:46:01;2.90;55.60
19258;DHT22;9763;48.780;9.212;2023-02-28T04:49:27;2.90;55.70
19258;DHT22;9763;48.780;9.212;2023-02-28T04:52:51;2.90;55.60
19258;DHT22;9763;48.780;9.212;2023-02-28T04:56:16;2.90;55.60
19258;DHT22;9763;48.780;9.212;2023-02-28T04:59:41;2.90;55.70
19258;DHT22;9763;48.780;9.212;2023-02-28T05:03:04;2.90;55.70
19258;DHT22;9763;48.780;9.212;2023-02-28T05:06:29;4.70;57.00
19258;DHT22;9763;48.780;9.212;2023-02-28T05:09:55;2.90;55.80
19258;DHT22;9763;48.780;9.212;2023-02-28T05:13:20;3.00;55.80
19258;DHT22;9763;48.780;9.212;2023-02-28T05:16:43;2.90;55.80
19258;DHT22;9763;48.780;9.212;2023-02-28T05:20:08;3.00;55.80
19258;DHT22;9763;48.780;9.212;2023-02-28T05:23:37;3.00;56.00
19258;DHT22;9763;48.780;9.212;2023-02-28T05:27:00;2.90;55.80
19258;DHT22;9763;48.780;9.212;2023-02-28T05:30:26;3.00;56.00
19258;DHT22;9763;48.780;9.212;2023-02-28T05:33:51;3.00;56.00
19258;DHT22;9763;48.780;9.212;2023-02-28T05:37:15;3.00;56.10
19258;DHT22;9763;48.780;9.212;2023-02-28T05:40:39;3.00;56.20
19258;DHT22;9763;48.780;9.212;2023-02-28T05:44:03;3.00;56.10
19258;DHT22;9763;48.780;9.212;2023-02-28T05:47:28;3.00;56.20
19258;DHT22;9763;48.780;9.212;2023-02-28T05:50:52;3.00;56.20
19258;DHT22;9763;48.780;9.212;2023-02-28T05:54:15;3.00;56.20
19258;DHT22;9763;48.780;9.212;2023-02-28T05:57:39;3.00;56.30
19258;DHT22;9763;48.780;9.212;2023-02-28T06:01:21;3.10;56.20
19258;DHT22;9763;48.780;9.212;2023-02-28T06:04:48;3.10;56.20
19258;DHT22;9763;48.780;9.212;2023-02-28T06:08:12;3.10;56.30
19258;DHT22;9763;48.780;9.212;2023-02-28T06:11:36;1.10;54.70
19258;DHT22;9763;48.780;9.212;2023-02-28T06:15:02;3.10;56.20
19258;DHT22;9763;48.780;9.212;2023-02-28T06:18:26;3.20;56.30
19258;DHT22;9763;48.780;9.212;2023-02-28T06:21:51;3.20;56.30
19258;DHT22;9763;48.780;9.212;2023-02-28T06:25:16;3.20;56.30
19258;DHT22;9763;48.780;9.212;2023-02-28T06:28:40;3.20;56.30
19258;DHT22;9763;48.780;9.212;2023-02-28T06:32:04;3.20;56.30
19258;DHT22;9763;48.780;9.212;2023-02-28T06:35:28;3.20;56.40
19258;DHT22;9763;48.780;9.212;2023-02-28T06:38:53;3.20;56.30
19258;DHT22;9763;48.780;9.212;2023-02-28T06:42:18;3.20;56.40
19258;DHT22;9763;48.780;9.212;2023-02-28T06:45:42;3.20;56.30
19258;DHT22;9763;48.780;9.212;2023-02-28T06:49:07;3.20;56.50
19258;DHT22;9763;48.780;9.212;2023-02-28T06:52:31;3.20;56.30
19258;DHT22;9763;48.780;9.212;2023-02-28T06:55:59;3.20;56.40
19258;DHT22;9763;48.780;9.212;2023-02-28T06:59:27;3.20;56.40
19258;DHT22;9763;48.780;9.212;2023-02-28T07:02:51;3.20;56.40
19258;DHT22;9763;48.780;9.212;2023-02-28T07:06:15;3.30;56.50
19258;DHT22;9763;48.780;9.212;2023-02-28T07:09:40;3.30;56.30
19258;DHT22;9763;48.780;9.212;2023-02-28T07:13:06;3.30;57.10
19258;DHT22;9763;48.780;9.212;2023-02-28T07:16:31;3.30;56.40
19258;DHT22;9763;48.780;9.212;2023-02-28T07:19:54;3.30;56.40
19258;DHT22;9763;48.780;9.212;2023-02-28T07:23:18;3.30;56.00
19258;DHT22;9763;48.780;9.212;2023-02-28T07:26:42;3.30;56.10
19258;DHT22;9763;48.780;9.212;2023-02-28T07:30:09;3.20;56.50
19258;DHT22;9763;48.780;9.212;2023-02-28T07:33:34;3.20;56.10
19258;DHT22;9763;48.780;9.212;2023-02-28T07:36:58;3.20;56.00
19258;DHT22;9763;48.780;9.212;2023-02-28T07:40:22;3.10;55.80
19258;DHT22;9763;48.780;9.212;2023-02-28T07:43:46;3.10;55.90
19258;DHT22;9763;48.780;9.212;2023-02-28T07:47:11;3.10;56.30
19258;DHT22;9763;48.780;9.212;2023-02-28T07:50:35;3.10;56.10
19258;DHT22;9763;48.780;9.212;2023-02-28T07:53:59;2.70;55.60
19258;DHT22;9763;48.780;9.212;2023-02-28T07:57:23;3.10;56.30
19258;DHT22;9763;48.780;9.212;2023-02-28T08:00:47;3.20;56.40
19258;DHT22;9763;48.780;9.212;2023-02-28T08:04:12;3.10;56.20
19258;DHT22;9763;48.780;9.212;2023-02-28T08:07:36;3.20;56.30
19258;DHT22;9763;48.780;9.212;2023-02-28T08:11:01;3.20;56.50
19258;DHT22;9763;48.780;9.212;2023-02-28T08:14:25;3.20;56.50
19258;DHT22;9763;48.780;9.212;2023-02-28T08:17:49;3.30;56.30
19258;DHT22;9763;48.780;9.212;2023-02-28T08:21:14;3.30;56.50
19258;DHT22;9763;48.780;9.212;2023-02-28T08:24:39;3.40;56.40
19258;DHT22;9763;48.780;9.212;2023-02-28T08:28:04;3.40;56.30
19258;DHT22;9763;48.780;9.212;2023-02-28T08:31:28;4.60;57.20
19258;DHT22;9763;48.780;9.212;2023-02-28T08:34:52;3.40;56.20
19258;DHT22;9763;48.780;9.212;2023-02-28T08:38:17;3.40;56.00
19258;DHT22;9763;48.780;9.212;2023-02-28T08:41:42;3.70;56.70
19258;DHT22;9763;48.780;9.212;2023-02-28T08:45:07;3.50;56.70
19258;DHT22;9763;48.780;9.212;2023-02-28T08:48:33;3.60;57.00
19258;DHT22;9763;48.780;9.212;2023-02-28T08:52:00;3.60;56.60
19258;DHT22;9763;48.780;9.212;2023-02-28T08:55:25;3.70;56.60
19258;DHT22;9763;48.780;9.212;2023-02-28T08:58:50;3.70;56.40
19258;DHT22;9763;48.780;9.212;2023-02-28T09:02:14;3.70;56.40
19258;DHT22;9763;48.780;9.212;2023-02-28T09:05:38;3.70;56.60
19258;DHT22;9763;48.780;9.212;2023-02-28T09:09:03;3.70;56.90
19258;DHT22;9763;48.780;9.212;2023-02-28T09:12:32;3.80;56.90
19258;DHT22;9763;48.780;9.212;2023-02-28T09:15:59;3.90;56.90
19258;DHT22;9763;48.780;9.212;2023-02-28T09:19:24;3.90;57.00
19258;DHT22;9763;48.780;9.212;2023-02-28T09:22:47;4.00;56.70
19258;DHT22;9763;48.780;9.212;2023-02-28T09:26:14;3.20;55.80
19258;DHT22;9763;48.780;9.212;2023-02-28T09:29:40;4.10;56.80
19258;DHT22;9763;48.780;9.212;2023-02-28T09:33:03;4.10;57.20
19258;DHT22;9763;48.780;9.212;2023-02-28T09:36:27;4.20;56.70
19258;DHT22;9763;48.780;9.212;2023-02-28T09:40:07;4.20;56.60
19258;DHT22;9763;48.780;9.212;2023-02-28T09:43:36;4.30;56.70
19258;DHT22;9763;48.780;9.212;2023-02-28T09:47:11;4.30;57.00
19258;DHT22;9763;48.780;9.212;2023-02-28T09:50:40;4.30;56.80
19258;DHT22;9763;48.780;9.212;2023-02-28T09:54:13;4.40;56.80
19258;DHT22;9763;48.780;9.212;2023-02-28T09:57:41;4.50;56.30
19258;DHT22;9763;48.780;9.212;2023-02-28T10:01:11;4.50;56.70
19258;DHT22;9763;48.780;9.212;2023-02-28T10:04:47;4.60;56.80
19258;DHT22;9763;48.780;9.212;2023-02-28T10:08:21;4.60;57.20
19258;DHT22;9763;48.780;9.212;2023-02-28T10:11:49;4.70;56.90
19258;DHT22;9763;48.780;9.212;2023-02-28T10:15:19;4.80;56.90
19258;DHT22;9763;48.780;9.212;2023-02-28T10:18:51;4.90;56.90
19258;DHT22;9763;48.780;9.212;2023-02-28T10:22:23;4.90;56.20
19258;DHT22;9763;48.780;9.212;2023-02-28T10:25:55;5.00;57.00
19258;DHT22;9763;48.780;9.212;2023-02-28T10:29:21;5.30;57.20
19258;DHT22;9763;48.780;9.212;2023-02-28T10:32:50;5.20;57.40
19258;DHT22;9763;48.780;9.212;2023-02-28T10:36:18;5.30;57.40
19258;DHT22;9763;48.780;9.212;2023-02-28T10:39:46;5.40;57.60
19258;DHT22;9763;48.780;9.212;2023-02-28T10:43:20;5.60;57.10
19258;DHT22;9763;48.780;9.212;2023-02-28T10:46:46;5.70;57.20
19258;DHT22;9763;48.780;9.212;2023-02-28T10:50:28;5.80;57.30
19258;DHT22;9763;48.780;9.212;2023-02-28T10:53:55;5.90;56.40
19258;DHT22;9763;48.780;9.212;2023-02-28T10:57:24;6.00;57.30
19258;DHT22;9763;48.780;9.212;2023-02-28T11:00:48;6.10;57.00
19258;DHT22;9763;48.780;9.212;2023-02-28T11:04:20;6.10;56.80
19258;DHT22;9763;48.780;9.212;2023-02-28T11:08:05;6.10;56.20
19258;DHT22;9763;48.780;9.212;2023-02-28T11:11:43;6.20;57.00
19258;DHT22;9763;48.780;9.212;2023-02-28T11:15:21;6.50;60.80
19258;DHT22;9763;48.780;9.212;2023-02-28T11:18:49;7.30;64.00
19258;DHT22;9763;48.780;9.212;2023-02-28T11:22:19;8.10;66.30
19258;DHT22;9763;48.780;9.212;2023-02-28T11:25:48;9.00;68.20
19258;DHT22;9763;48.780;9.212;2023-02-28T11:29:20;9.90;65.90
19258;DHT22;9763;48.780;9.212;2023-02-28T11:32:50;10.70;63.60
19258;DHT22;9763;48.780;9.212;2023-02-28T11:36:16;11.30;63.00
19258;DHT22;9763;48.780;9.212;2023-02-28T11:39:43;11.80;61.50
19258;DHT22;9763;48.780;9.212;2023-02-28T11:43:16;12.00;59.20
19258;DHT22;9763;48.780;9.212;2023-02-28T11:46:52;11.90;56.60
19258;DHT22;9763;48.780;9.212;2023-02-28T11:50:42;11.70;56.80
19258;DHT22;9763;48.780;9.212;2023-02-28T11:54:34;11.60;57.90
19258;DHT22;9763;48.780;9.212;2023-02-28T11:58:30;11.70;58.00
19258;DHT22;9763;48.780;9.212;2023-02-28T12:02:30;11.70;55.60
19258;DHT22;9763;48.780;9.212;2023-02-28T12:06:13;11.40;54.10
19258;DHT22;9763;48.780;9.212;2023-02-28T12:09:53;11.20;54.20
19258;DHT22;9763;48.780;9.212;2023-02-28T12:13:32;10.90;55.10
19258;DHT22;9763;48.780;9.212;2023-02-28T12:17:12;10.80;56.00
19258;DHT22;9763;48.780;9.212;2023-02-28T12:20:49;10.70;55.10
19258;DHT22;9763;48.780;9.212;2023-02-28T12:24:33;10.70;55.30
19258;DHT22;9763;48.780;9.212;2023-02-28T12:28:09;10.60;54.40
19258;DHT22;9763;48.780;9.212;2023-02-28T12:31:40;10.60;54.50
19258;DHT22;9763;48.780;9.212;2023-02-28T12:35:13;10.50;55.10
19258;DHT22;9763;48.780;9.212;2023-02-28T12:38:44;10.30;53.00
19258;DHT22;9763;48.780;9.212;2023-02-28T12:42:17;10.20;51.60
19258;DHT22;9763;48.780;9.212;2023-02-28T12:45:49;10.00;51.50
19258;DHT22;9763;48.780;9.212;2023-02-28T12:49:20;9.90;52.10
19258;DHT22;9763;48.780;9.212;2023-02-28T12:52:53;9.70;53.00
19258;DHT22;9763;48.780;9.212;2023-02-28T12:56:32;9.50;53.30
19258;DHT22;9763;48.780;9.212;2023-02-28T13:00:10;9.50;53.20
19258;DHT22;9763;48.780;9.212;2023-02-28T13:04:04;9.40;51.50
19258;DHT22;9763;48.780;9.212;2023-02-28T13:08:12;9.40;52.30
19258;DHT22;9763;48.780;9.212;2023-02-28T13:11:54;9.30;52.10
19258;DHT22;9763;48.780;9.212;2023-02-28T13:15:24;9.30;52.70
19258;DHT22;9763;48.780;9.212;2023-02-28T13:18:50;9.20;52.70
19258;DHT22;9763;48.780;9.212;2023-02-28T13:22:19;9.20;51.40
19258;DHT22;9763;48.780;9.212;2023-02-28T13:25:59;9.20;52.70
19258;DHT22;9763;48.780;9.212;2023-02-28T13:29:28;9.20;52.90
19258;DHT22;9763;48.780;9.212;2023-02-28T13:33:24;9.20;52.40
19258;DHT22;9763;48.780;9.212;2023-02-28T13:36:50;9.30;52.60
19258;DHT22;9763;48.780;9.212;2023-02-28T13:40:34;9.30;53.40
19258;DHT22;9763;48.780;9.212;2023-02-28T13:44:02;9.30;51.10
19258;DHT22;9763;48.780;9.212;2023-02-28T13:47:29;9.40;52.50
19258;DHT22;9763;48.780;9.212;2023-02-28T13:50:57;9.40;53.00
19258;DHT22;9763;48.780;9.212;2023-02-28T13:54:31;9.40;53.00
19258;DHT22;9763;48.780;9.212;2023-02-28T13:58:23;9.40;53.20
19258;DHT22;9763;48.780;9.212;2023-02-28T14:02:30;9.60;52.50
19258;DHT22;9763;48.780;9.212;2023-02-28T14:06:22;9.40;52.00
19258;DHT22;9763;48.780;9.212;2023-02-28T14:09:55;9.40;52.30
19258;DHT22;9763;48.780;9.212;2023-02-28T14:13:41;9.30;52.40
19258;DHT22;9763;48.780;9.212;2023-02-28T14:17:15;9.30;51.00
19258;DHT22;9763;48.780;9.212;2023-02-28T14:20:41;9.20;51.10
19258;DHT22;9763;48.780;9.212;2023-02-28T14:24:46;9.10;51.50
19258;DHT22;9763;48.780;9.212;2023-02-28T14:28:31;9.10;51.70
19258;DHT22;9763;48.780;9.212;2023-02-28T14:32:13;9.10;52.20
19258;DHT22;9763;48.780;9.212;2023-02-28T14:35:55;9.00;52.70
19258;DHT22;9763;48.780;9.212;2023-02-28T14:39:27;9.10;53.00
19258;DHT22;9763;48.780;9.212;2023-02-28T14:43:00;9.10;52.50
19258;DHT22;9763;48.780;9.212;2023-02-28T14:46:28;9.10;51.90
19258;DHT22;9763;48.780;9.212;2023-02-28T14:49:58;9.10;52.50
19258;DHT22;9763;48.780;9.212;2023-02-28T14:53:27;9.10;52.10
19258;DHT22;9763;48.780;9.212;2023-02-28T14:56:54;9.10;50.60
19258;DHT22;9763;48.780;9.212;2023-02-28T15:00:23;9.00;51.10
19258;DHT22;9763;48.780;9.212;2023-02-28T15:03:57;8.90;51.90
19258;DHT22;9763;48.780;9.212;2023-02-28T15:07:23;8.90;52.30
19258;DHT22;9763;48.780;9.212;2023-02-28T15:10:54;8.90;52.00
19258;DHT22;9763;48.780;9.212;2023-02-28T15:14:21;8.90;52.10
19258;DHT22;9763;48.780;9.212;2023-02-28T15:17:48;9.00;52.00
19258;DHT22;9763;48.780;9.212;2023-02-28T15:21:15;8.80;52.00
19258;DHT22;9763;48.780;9.212;2023-02-28T15:24:43;8.80;52.30
19258;DHT22;9763;48.780;9.212;2023-02-28T15:28:14;8.70;52.30
19258;DHT22;9763;48.780;9.212;2023-02-28T15:31:46;8.70;52.20
19258;DHT22;9763;48.780;9.212;2023-02-28T15:35:26;8.60;51.90
19258;DHT22;9763;48.780;9.212;2023-02-28T15:38:53;8.60;51.40
19258;DHT22;9763;48.780;9.212;2023-02-28T15:42:21;8.50;51.40
19258;DHT22;9763;48.780;9.212;2023-02-28T15:45:48;8.50;52.00
19258;DHT22;9763;48.780;9.212;2023-02-28T15:49:19;8.80;52.10
19258;DHT22;9763;48.780;9.212;2023-02-28T15:52:45;8.40;51.40
19258;DHT22;9763;48.780;9.212;2023-02-28T15:56:22;8.30;51.60
19258;DHT22;9763;48.780;9.212;2023-02-28T15:59:51;8.30;51.80
19258;DHT22;9763;48.780;9.212;2023-02-28T16:03:24;8.30;52.30
19258;DHT22;9763;48.780;9.212;2023-02-28T16:07:04;8.20;52.30
19258;DHT22;9763;48.780;9.212;2023-02-28T16:10:29;8.20;52.20
19258;DHT22;9763;48.780;9.212;2023-02-28T16:13:53;8.20;52.40
19258;DHT22;9763;48.780;9.212;2023-02-28T16:17:20;8.10;52.40
19258;DHT22;9763;48.780;9.212;2023-02-28T16:20:46;8.10;52.30
19258;DHT22;9763;48.780;9.212;2023-02-28T16:24:11;8.00;52.20
19258;DHT22;9763;48.780;9.212;2023-02-28T16:27:36;8.00;51.40
19258;DHT22;9763;48.780;9.212;2023-02-28T16:31:02;7.90;51.20
19258;DHT22;9763;48.780;9.212;2023-02-28T16:34:27;7.80;51.70
19258;DHT22;9763;48.780;9.212;2023-02-28T16:37:51;7.70;51.20
19258;DHT22;9763;48.780;9.212;2023-02-28T16:41:19;7.70;51.60
19258;DHT22;9763;48.780;9.212;2023-02-28T16:44:46;7.60;51.50
19258;DHT22;9763;48.780;9.212;2023-02-28T16:48:13;7.50;51.30
19258;DHT22;9763;48.780;9.212;2023-02-28T16:51:38;7.40;51.60
19258;DHT22;9763;48.780;9.212;2023-02-28T16:55:02;7.40;51.90
19258;DHT22;9763;48.780;9.212;2023-02-28T16:58:27;7.30;52.00
19258;DHT22;9763;48.780;9.212;2023-02-28T17:01:51;7.30;51.80
19258;DHT22;9763;48.780;9.212;2023-02-28T17:05:15;7.20;51.90
19258;DHT22;9763;48.780;9.212;2023-02-28T17:08:40;7.20;51.80
19258;DHT22;9763;48.780;9.212;2023-02-28T17:12:04;7.10;51.80
19258;DHT22;9763;48.780;9.212;2023-02-28T17:15:31;7.00;51.90
19258;DHT22;9763;48.780;9.212;2023-02-28T17:18:57;7.00;51.70
19258;DHT22;9763;48.780;9.212;2023-02-28T17:22:22;6.90;52.10
19258;DHT22;9763;48.780;9.212;2023-02-28T17:25:48;6.90;52.10
19258;DHT22;9763;48.780;9.212;2023-02-28T17:29:21;6.90;52.00
19258;DHT22;9763;48.780;9.212;2023-02-28T17:32:48;7.10;52.20
19258;DHT22;9763;48.780;9.212;2023-02-28T17:36:14;6.80;52.20
19258;DHT22;9763;48.780;9.212;2023-02-28T17:39:38;6.80;52.30
19258;DHT22;9763;48.780;9.212;2023-02-28T17:43:02;6.90;52.40
19258;DHT22;9763;48.780;9.212;2023-02-28T17:46:26;6.70;52.20
19258;DHT22;9763;48.780;9.212;2023-02-28T17:49:52;6.70;52.20
19258;DHT22;9763;48.780;9.212;2023-02-28T17:53:16;6.60;52.30
19258;DHT22;9763;48.780;9.212;2023-02-28T17:56:40;7.40;52.90
19258;DHT22;9763;48.780;9.212;2023-02-28T18:00:06;5.00;51.20
19258;DHT22;9763;48.780;9.212;2023-02-28T18:03:36;6.60;52.60
19258;DHT22;9763;48.780;9.212;2023-02-28T18:07:01;6.50;52.40
19258;DHT22;9763;48.780;9.212;2023-02-28T18:10:25;6.50;52.50
19258;DHT22;9763;48.780;9.212;2023-02-28T18:13:51;6.40;52.50
19258;DHT22;9763;48.780;9.212;2023-02-28T18:17:16;6.40;51.90
19258;DHT22;9763;48.780;9.212;2023-02-28T18:20:40;6.40;52.50
19258;DHT22;9763;48.780;9.212;2023-02-28T18:24:05;6.30;52.50
19258;DHT22;9763;48.780;9.212;2023-02-28T18:27:29;6.30;52.50
19258;DHT22;9763;48.780;9.212;2023-02-28T18:30:53;6.20;52.60
19258;DHT22;9763;48.780;9.212;2023-02-28T18:34:17;6.20;52.60
19258;DHT22;9763;48.780;9.212;2023-02-28T18:37:41;6.20;52.60
19258;DHT22;9763;48.780;9.212;2023-02-28T18:41:06;6.30;52.60
19258;DHT22;9763;48.780;9.212;2023-02-28T18:44:30;6.10;52.50
19258;DHT22;9763;48.780;9.212;2023-02-28T18:47:54;6.00;52.50
19258;DHT22;9763;48.780;9.212;2023-02-28T18:51:24;5.90;52.50
19258;DHT22;9763;48.780;9.212;2023-02-28T18:54:48;5.80;52.60
19258;DHT22;9763;48.780;9.212;2023-02-28T18:58:13;5.80;52.60
19258;DHT22;9763;48.780;9.212;2023-02-28T19:01:37;5.70;52.60
19258;DHT22;9763;48.780;9.212;2023-02-28T19:05:02;5.60;52.60
19258;DHT22;9763;48.780;9.212;2023-02-28T19:08:26;5.50;52.70
19258;DHT22;9763;48.780;9.212;2023-02-28T19:11:51;5.40;52.60
19258;DHT22;9763;48.780;9.212;2023-02-28T19:15:16;5.40;52.70
19258;DHT22;9763;48.780;9.212;2023-02-28T19:18:40;5.30;52.80
19258;DHT22;9763;48.780;9.212;2023-02-28T19:22:04;5.20;52.80
19258;DHT22;9763;48.780;9.212;2023-02-28T19:25:28;5.20;52.70
19258;DHT22;9763;48.780;9.212;2023-02-28T19:28:52;5.10;52.80
19258;DHT22;9763;48.780;9.212;2023-02-28T19:32:18;5.10;52.90
19258;DHT22;9763;48.780;9.212;2023-02-28T19:35:43;5.00;53.00
19258;DHT22;9763;48.780;9.212;2023-02-28T19:39:07;5.00;53.00
19258;DHT22;9763;48.780;9.212;2023-02-28T19:42:31;4.90;53.00
19258;DHT22;9763;48.780;9.212;2023-02-28T19:45:57;4.90;53.10
19258;DHT22;9763;48.780;9.212;2023-02-28T19:49:23;4.80;53.20
19258;DHT22;9763;48.780;9.212;2023-02-28T19:52:47;4.80;53.20
19258;DHT22;9763;48.780;9.212;2023-02-28T19:56:11;4.80;53.20
19258;DHT22;9763;48.780;9.212;2023-02-28T19:59:35;4.70;53.10
19258;DHT22;9763;48.780;9.212;2023-02-28T20:03:01;4.70;53.20
19258;DHT22;9763;48.780;9.212;2023-02-28T20:06:26;4.70;53.20
19258;DHT22;9763;48.780;9.212;2023-02-28T20:09:50;4.60;53.30
19258;DHT22;9763;48.780;9.212;2023-02-28T20:13:14;3.60;52.50
19258;DHT22;9763;48.780;9.212;2023-02-28T20:16:40;4.50;53.30
19258;DHT22;9763;48.780;9.212;2023-02-28T20:20:05;4.50;53.50
19258;DHT22;9763;48.780;9.212;2023-02-28T20:23:33;4.40;53.40
19258;DHT22;9763;48.780;9.212;2023-02-28T20:26:57;4.40;53.50
19258;DHT22;9763;48.780;9.212;2023-02-28T20:30:21;4.30;53.50
19258;DHT22;9763;48.780;9.212;2023-02-28T20:33:47;4.30;53.60
19258;DHT22;9763;48.780;9.212;2023-02-28T20:37:11;5.20;54.50
19258;DHT22;9763;48.780;9.212;2023-02-28T20:40:37;4.20;53.70
19258;DHT22;9763;48.780;9.212;2023-02-28T20:44:01;4.20;53.80
19258;DHT22;9763;48.780;9.212;2023-02-28T20:47:24;4.20;53.90
19258;DHT22;9763;48.780;9.212;2023-02-28T20:50:48;7.00;56.70
19258;DHT22;9763;48.780;9.212;2023-02-28T20:54:13;4.10;54.00
19258;DHT22;9763;48.780;9.212;2023-02-28T20:57:38;4.10;54.10
19258;DHT22;9763;48.780;9.212;2023-02-28T21:01:04;4.10;54.20
19258;DHT22;9763;48.780;9.212;2023-02-28T21:04:33;4.10;54.90
19258;DHT22;9763;48.780;9.212;2023-02-28T21:07:57;4.00;54.20
19258;DHT22;9763;48.780;9.212;2023-02-28T21:11:23;4.10;54.30
19258;DHT22;9763;48.780;9.212;2023-02-28T21:14:49;4.10;54.40
19258;DHT22;9763;48.780;9.212;2023-02-28T21:18:12;4.10;54.30
19258;DHT22;9763;48.780;9.212;2023-02-28T21:21:39;4.00;54.20
19258;DHT22;9763;48.780;9.212;2023-02-28T21:25:05;4.00;54.20
19258;DHT22;9763;48.780;9.212;2023-02-28T21:28:30;4.00;54.30
19258;DHT22;9763;48.780;9.212;2023-02-28T21:31:54;4.00;54.20
19258;DHT22;9763;48.780;9.212;2023-02-28T21:35:18;3.90;54.20
19258;DHT22;9763;48.780;9.212;2023-02-28T21:38:43;3.90;54.20
19258;DHT22;9763;48.780;9.212;2023-02-28T21:42:08;3.90;54.30
19258;DHT22;9763;48.780;9.212;2023-02-28T21:45:33;3.80;54.20
19258;DHT22;9763;48.780;9.212;2023-02-28T21:48:58;5.10;55.30
19258;DHT22;9763;48.780;9.212;2023-02-28T21:52:22;3.80;55.00
19258;DHT22;9763;48.780;9.212;2023-02-28T21:55:45;3.80;54.50
19258;DHT22;9763;48.780;9.212;2023-02-28T21:59:09;3.80;54.30
19258;DHT22;9763;48.780;9.212;2023-02-28T22:02:33;3.70;54.30
19258;DHT22;9763;48.780;9.212;2023-02-28T22:06:01;3.70;54.30
19258;DHT22;9763;48.780;9.212;2023-02-28T22:09:33;3.70;54.50
19258;DHT22;9763;48.780;9.212;2023-02-28T22:12:57;3.60;54.40
19258;DHT22;9763;48.780;9.212;2023-02-28T22:16:24;3.60;54.40
19258;DHT22;9763;48.780;9.212;2023-02-28T22:19:54;3.60;54.00
19258;DHT22;9763;48.780;9.212;2023-02-28T22:23:19;3.60;54.50
19258;DHT22;9763;48.780;9.212;2023-02-28T22:26:42;3.60;54.50
19258;DHT22;9763;48.780;9.212;2023-02-28T22:30:07;3.60;54.50
19258;DHT22;9763;48.780;9.212;2023-02-28T22:33:31;3.60;54.60
19258;DHT22;9763;48.780;9.212;2023-02-28T22:36:55;3.50;54.00
19258;DHT22;9763;48.780;9.212;2023-02-28T22:40:20;3.50;54.00